sensor_id;sensor_type;location;lat;lon;timestamp;P1;durP1;ratioP1;P2;durP2;ratioP2
25559;SDS011;13450;49.374;8.584;2023-04-03T00:01:25;3.78;;;1.23;;
25559;SDS011;13450;49.374;8.584;2023-04-03T00:03:51;2.72;;;1.40;;
25559;SDS011;13450;49.374;8.584;2023-04-03T00:06:16;3.83;;;1.20;;
25559;SDS011;13450;49.374;8.584;2023-04-03T00:08:42;2.72;;;1.30;;
25559;SDS011;13450;49.374;8.584;2023-04-03T00:11:09;2.47;;;1.23;;
25559;SDS011;13450;49.374;8.584;2023-04-03T00:13:35;3.40;;;1.45;;
25559;SDS011;13450;49.374;8.584;2023-04-03T00:16:01;2.70;;;1.30;;
25559;SDS011;13450;49.374;8.584;2023-04-03T00:21:03;3.70;;;1.25;;
25559;SDS011;13450;49.374;8.584;2023-04-03T00:23:30;3.40;;;1.50;;
25559;SDS011;13450;49.374;8.584;2023-04-03T00:25:56;3.35;;;1.60;;
25559;SDS011;13450;49.374;8.584;2023-04-03T00:30:59;3.92;;;1.20;;
25559;SDS011;13450;49.374;8.584;2023-04-03T00:33:27;4.00;;;1.20;;
25559;SDS011;13450;49.374;8.584;2023-04-03T00:35:52;3.28;;;1.27;;
25559;SDS011;13450;49.374;8.584;2023-04-03T00:38:18;2.75;;;1.17;;
25559;SDS011;13450;49.374;8.584;2023-04-03T00:40:47;4.00;;;1.40;;
25559;SDS011;13450;49.374;8.584;2023-04-03T00:43:16;3.50;;;1.50;;
25559;SDS011;13450;49.374;8.584;2023-04-03T00:45:45;2.42;;;1.20;;
25559;SDS011;13450;49.374;8.584;2023-04-03T00:50:45;2.90;;;1.40;;
25559;SDS011;13450;49.374;8.584;2023-04-03T00:53:13;4.55;;;1.48;;
25559;SDS011;13450;49.374;8.584;2023-04-03T00:58:07;3.83;;;1.30;;
25559;SDS011;13450;49.374;8.584;2023-04-03T01:00:35;2.67;;;1.25;;
25559;SDS011;13450;49.374;8.584;2023-04-03T01:03:05;4.00;;;1.30;;
25559;SDS011;13450;49.374;8.584;2023-04-03T01:05:30;4.70;;;1.20;;
25559;SDS011;13450;49.374;8.584;2023-04-03T01:07:56;4.53;;;1.20;;
25559;SDS011;13450;49.374;8.584;2023-04-03T01:10:24;2.35;;;1.23;;
25559;SDS011;13450;49.374;8.584;2023-04-03T01:12:51;2.92;;;1.50;;
25559;SDS011;13450;49.374;8.584;2023-04-03T01:15:24;2.47;;;1.25;;
25559;SDS011;13450;49.374;8.584;2023-04-03T01:17:55;2.60;;;1.17;;
25559;SDS011;13450;49.374;8.584;2023-04-03T01:26:12;2.97;;;1.20;;
25559;SDS011;13450;49.374;8.584;2023-04-03T01:28:39;3.45;;;1.20;;
25559;SDS011;13450;49.374;8.584;2023-04-03T01:33:56;1.70;;;0.98;;
25559;SDS011;13450;49.374;8.584;2023-04-03T01:36:24;2.85;;;1.17;;
25559;SDS011;13450;49.374;8.584;2023-04-03T01:41:17;3.17;;;1.25;;
25559;SDS011;13450;49.374;8.584;2023-04-03T01:43:43;3.17;;;1.17;;
25559;SDS011;13450;49.374;8.584;2023-04-03T01:48:44;2.67;;;1.10;;
25559;SDS011;13450;49.374;8.584;2023-04-03T01:51:10;1.70;;;1.00;;
25559;SDS011;13450;49.374;8.584;2023-04-03T01:53:35;3.00;;;1.30;;
25559;SDS011;13450;49.374;8.584;2023-04-03T01:58:36;4.05;;;1.40;;
25559;SDS011;13450;49.374;8.584;2023-04-03T02:01:02;2.83;;;1.50;;
25559;SDS011;13450;49.374;8.584;2023-04-03T02:03:27;4.85;;;1.52;;
25559;SDS011;13450;49.374;8.584;2023-04-03T02:05:53;3.50;;;1.30;;
25559;SDS011;13450;49.374;8.584;2023-04-03T02:08:18;3.25;;;1.58;;
25559;SDS011;13450;49.374;8.584;2023-04-03T02:10:46;3.00;;;1.35;;
25559;SDS011;13450;49.374;8.584;2023-04-03T02:13:13;3.57;;;1.40;;
25559;SDS011;13450;49.374;8.584;2023-04-03T02:15:41;2.60;;;1.17;;
25559;SDS011;13450;49.374;8.584;2023-04-03T02:18:06;2.50;;;1.10;;
25559;SDS011;13450;49.374;8.584;2023-04-03T02:20:32;3.97;;;1.63;;
25559;SDS011;13450;49.374;8.584;2023-04-03T02:22:58;3.40;;;1.38;;
25559;SDS011;13450;49.374;8.584;2023-04-03T02:25:24;3.10;;;1.38;;
25559;SDS011;13450;49.374;8.584;2023-04-03T02:33:00;3.58;;;1.30;;
25559;SDS011;13450;49.374;8.584;2023-04-03T02:35:29;3.13;;;1.23;;
25559;SDS011;13450;49.374;8.584;2023-04-03T02:37:54;2.73;;;1.20;;
25559;SDS011;13450;49.374;8.584;2023-04-03T02:40:20;3.17;;;1.30;;
25559;SDS011;13450;49.374;8.584;2023-04-03T02:47:59;3.28;;;1.35;;
25559;SDS011;13450;49.374;8.584;2023-04-03T02:50:24;2.30;;;1.20;;
25559;SDS011;13450;49.374;8.584;2023-04-03T02:52:50;3.28;;;1.20;;
25559;SDS011;13450;49.374;8.584;2023-04-03T02:57:51;4.30;;;1.42;;
25559;SDS011;13450;49.374;8.584;2023-04-03T03:00:16;2.92;;;1.30;;
25559;SDS011;13450;49.374;8.584;2023-04-03T03:02:42;2.38;;;1.30;;
25559;SDS011;13450;49.374;8.584;2023-04-03T03:05:07;2.83;;;1.10;;
25559;SDS011;13450;49.374;8.584;2023-04-03T03:10:10;2.45;;;1.20;;
25559;SDS011;13450;49.374;8.584;2023-04-03T03:15:10;2.70;;;1.25;;
25559;SDS011;13450;49.374;8.584;2023-04-03T03:17:36;3.58;;;1.17;;
25559;SDS011;13450;49.374;8.584;2023-04-03T03:20:02;4.65;;;1.75;;
25559;SDS011;13450;49.374;8.584;2023-04-03T03:22:29;2.75;;;1.00;;
25559;SDS011;13450;49.374;8.584;2023-04-03T03:24:57;5.32;;;1.90;;
25559;SDS011;13450;49.374;8.584;2023-04-03T03:27:22;3.20;;;1.33;;
25559;SDS011;13450;49.374;8.584;2023-04-03T03:29:48;2.78;;;1.20;;
25559;SDS011;13450;49.374;8.584;2023-04-03T03:32:14;4.53;;;1.42;;
25559;SDS011;13450;49.374;8.584;2023-04-03T03:34:40;3.50;;;1.48;;
25559;SDS011;13450;49.374;8.584;2023-04-03T03:37:05;2.60;;;1.20;;
25559;SDS011;13450;49.374;8.584;2023-04-03T03:39:31;3.60;;;1.50;;
25559;SDS011;13450;49.374;8.584;2023-04-03T03:41:56;3.40;;;1.67;;
25559;SDS011;13450;49.374;8.584;2023-04-03T03:44:22;3.03;;;1.35;;
25559;SDS011;13450;49.374;8.584;2023-04-03T03:46:47;2.92;;;1.50;;
25559;SDS011;13450;49.374;8.584;2023-04-03T03:49:13;3.47;;;1.45;;
25559;SDS011;13450;49.374;8.584;2023-04-03T03:51:38;2.72;;;1.45;;
25559;SDS011;13450;49.374;8.584;2023-04-03T03:54:07;2.37;;;1.17;;
25559;SDS011;13450;49.374;8.584;2023-04-03T03:56:33;5.20;;;1.40;;
25559;SDS011;13450;49.374;8.584;2023-04-03T03:58:58;6.03;;;1.50;;
25559;SDS011;13450;49.374;8.584;2023-04-03T04:01:24;2.50;;;1.35;;
25559;SDS011;13450;49.374;8.584;2023-04-03T04:03:50;3.42;;;1.40;;
25559;SDS011;13450;49.374;8.584;2023-04-03T04:06:15;3.90;;;1.50;;
25559;SDS011;13450;49.374;8.584;2023-04-03T04:08:41;2.90;;;1.50;;
25559;SDS011;13450;49.374;8.584;2023-04-03T04:11:08;3.25;;;1.70;;
25559;SDS011;13450;49.374;8.584;2023-04-03T04:13:34;2.95;;;1.35;;
25559;SDS011;13450;49.374;8.584;2023-04-03T04:15:59;2.95;;;1.38;;
25559;SDS011;13450;49.374;8.584;2023-04-03T04:18:25;6.22;;;1.60;;
25559;SDS011;13450;49.374;8.584;2023-04-03T04:20:51;4.22;;;1.65;;
25559;SDS011;13450;49.374;8.584;2023-04-03T04:23:17;3.33;;;1.75;;
25559;SDS011;13450;49.374;8.584;2023-04-03T04:25:46;2.63;;;1.50;;
25559;SDS011;13450;49.374;8.584;2023-04-03T04:28:13;3.03;;;1.50;;
25559;SDS011;13450;49.374;8.584;2023-04-03T04:30:39;3.80;;;1.63;;
25559;SDS011;13450;49.374;8.584;2023-04-03T04:33:04;5.50;;;1.55;;
25559;SDS011;13450;49.374;8.584;2023-04-03T04:35:32;3.03;;;1.50;;
25559;SDS011;13450;49.374;8.584;2023-04-03T04:37:58;3.08;;;1.55;;
25559;SDS011;13450;49.374;8.584;2023-04-03T04:40:23;2.78;;;1.27;;
25559;SDS011;13450;49.374;8.584;2023-04-03T04:42:49;5.32;;;1.60;;
25559;SDS011;13450;49.374;8.584;2023-04-03T04:45:14;3.95;;;1.30;;
25559;SDS011;13450;49.374;8.584;2023-04-03T04:47:40;6.63;;;1.65;;
25559;SDS011;13450;49.374;8.584;2023-04-03T04:50:05;2.83;;;1.50;;
25559;SDS011;13450;49.374;8.584;2023-04-03T04:52:31;3.22;;;1.40;;
25559;SDS011;13450;49.374;8.584;2023-04-03T04:54:56;1.88;;;1.10;;
25559;SDS011;13450;49.374;8.584;2023-04-03T04:57:21;5.20;;;1.70;;
25559;SDS011;13450;49.374;8.584;2023-04-03T04:59:47;3.20;;;1.40;;
25559;SDS011;13450;49.374;8.584;2023-04-03T05:02:12;5.03;;;1.50;;
25559;SDS011;13450;49.374;8.584;2023-04-03T05:04:37;3.40;;;1.40;;
25559;SDS011;13450;49.374;8.584;2023-04-03T05:07:03;5.75;;;1.60;;
25559;SDS011;13450;49.374;8.584;2023-04-03T05:09:28;3.88;;;1.52;;
25559;SDS011;13450;49.374;8.584;2023-04-03T05:11:53;3.58;;;1.58;;
25559;SDS011;13450;49.374;8.584;2023-04-03T05:14:19;3.60;;;1.55;;
25559;SDS011;13450;49.374;8.584;2023-04-03T05:16:44;2.97;;;1.40;;
25559;SDS011;13450;49.374;8.584;2023-04-03T05:19:09;2.88;;;1.50;;
25559;SDS011;13450;49.374;8.584;2023-04-03T05:21:35;4.28;;;2.45;;
25559;SDS011;13450;49.374;8.584;2023-04-03T05:24:00;3.65;;;1.90;;
25559;SDS011;13450;49.374;8.584;2023-04-03T05:26:28;2.95;;;1.52;;
25559;SDS011;13450;49.374;8.584;2023-04-03T05:28:55;3.65;;;1.60;;
25559;SDS011;13450;49.374;8.584;2023-04-03T05:31:20;3.63;;;1.88;;
25559;SDS011;13450;49.374;8.584;2023-04-03T05:33:48;3.42;;;1.70;;
25559;SDS011;13450;49.374;8.584;2023-04-03T05:36:14;5.10;;;1.50;;
25559;SDS011;13450;49.374;8.584;2023-04-03T05:38:42;2.30;;;1.13;;
25559;SDS011;13450;49.374;8.584;2023-04-03T05:41:07;3.83;;;1.55;;
25559;SDS011;13450;49.374;8.584;2023-04-03T05:43:33;5.00;;;1.77;;
25559;SDS011;13450;49.374;8.584;2023-04-03T05:45:59;3.08;;;1.45;;
25559;SDS011;13450;49.374;8.584;2023-04-03T05:48:24;3.38;;;1.77;;
25559;SDS011;13450;49.374;8.584;2023-04-03T05:50:50;2.85;;;1.38;;
25559;SDS011;13450;49.374;8.584;2023-04-03T05:53:18;2.63;;;1.20;;
25559;SDS011;13450;49.374;8.584;2023-04-03T05:55:47;2.97;;;1.50;;
25559;SDS011;13450;49.374;8.584;2023-04-03T05:58:12;2.50;;;1.27;;
25559;SDS011;13450;49.374;8.584;2023-04-03T06:00:38;2.38;;;1.33;;
25559;SDS011;13450;49.374;8.584;2023-04-03T06:03:03;4.75;;;1.70;;
25559;SDS011;13450;49.374;8.584;2023-04-03T06:05:29;5.25;;;1.70;;
25559;SDS011;13450;49.374;8.584;2023-04-03T06:07:54;4.25;;;1.70;;
25559;SDS011;13450;49.374;8.584;2023-04-03T06:10:20;3.42;;;1.60;;
25559;SDS011;13450;49.374;8.584;2023-04-03T06:12:49;4.28;;;1.58;;
25559;SDS011;13450;49.374;8.584;2023-04-03T06:15:15;3.60;;;1.98;;
25559;SDS011;13450;49.374;8.584;2023-04-03T06:17:41;5.72;;;1.55;;
25559;SDS011;13450;49.374;8.584;2023-04-03T06:20:07;3.72;;;1.60;;
25559;SDS011;13450;49.374;8.584;2023-04-03T06:22:36;3.40;;;1.70;;
25559;SDS011;13450;49.374;8.584;2023-04-03T06:25:01;3.40;;;1.55;;
25559;SDS011;13450;49.374;8.584;2023-04-03T06:27:27;3.88;;;1.50;;
25559;SDS011;13450;49.374;8.584;2023-04-03T06:29:55;3.75;;;1.40;;
25559;SDS011;13450;49.374;8.584;2023-04-03T06:32:22;4.50;;;1.52;;
25559;SDS011;13450;49.374;8.584;2023-04-03T06:34:51;3.10;;;1.58;;
25559;SDS011;13450;49.374;8.584;2023-04-03T06:37:19;6.70;;;1.75;;
25559;SDS011;13450;49.374;8.584;2023-04-03T06:39:47;5.82;;;1.58;;
25559;SDS011;13450;49.374;8.584;2023-04-03T06:42:14;5.53;;;1.98;;
25559;SDS011;13450;49.374;8.584;2023-04-03T06:44:39;4.07;;;1.90;;
25559;SDS011;13450;49.374;8.584;2023-04-03T06:47:05;4.72;;;2.10;;
25559;SDS011;13450;49.374;8.584;2023-04-03T06:49:33;4.38;;;1.67;;
25559;SDS011;13450;49.374;8.584;2023-04-03T06:51:58;3.55;;;1.70;;
25559;SDS011;13450;49.374;8.584;2023-04-03T06:54:23;5.32;;;1.80;;
25559;SDS011;13450;49.374;8.584;2023-04-03T06:56:50;3.83;;;1.70;;
25559;SDS011;13450;49.374;8.584;2023-04-03T06:59:15;4.95;;;2.20;;
25559;SDS011;13450;49.374;8.584;2023-04-03T07:01:41;3.92;;;1.70;;
25559;SDS011;13450;49.374;8.584;2023-04-03T07:04:06;4.63;;;2.00;;
25559;SDS011;13450;49.374;8.584;2023-04-03T07:06:32;4.88;;;1.83;;
25559;SDS011;13450;49.374;8.584;2023-04-03T07:08:58;3.90;;;1.80;;
25559;SDS011;13450;49.374;8.584;2023-04-03T07:11:24;3.63;;;1.90;;
25559;SDS011;13450;49.374;8.584;2023-04-03T07:13:50;5.47;;;1.90;;
25559;SDS011;13450;49.374;8.584;2023-04-03T07:16:18;4.18;;;1.58;;
25559;SDS011;13450;49.374;8.584;2023-04-03T07:18:44;4.50;;;2.45;;
25559;SDS011;13450;49.374;8.584;2023-04-03T07:21:09;4.32;;;2.10;;
25559;SDS011;13450;49.374;8.584;2023-04-03T07:23:35;3.65;;;1.70;;
25559;SDS011;13450;49.374;8.584;2023-04-03T07:26:00;4.15;;;2.00;;
25559;SDS011;13450;49.374;8.584;2023-04-03T07:28:28;4.05;;;1.92;;
25559;SDS011;13450;49.374;8.584;2023-04-03T07:30:59;4.20;;;1.75;;
25559;SDS011;13450;49.374;8.584;2023-04-03T07:33:26;3.40;;;1.60;;
25559;SDS011;13450;49.374;8.584;2023-04-03T07:35:51;5.18;;;1.85;;
25559;SDS011;13450;49.374;8.584;2023-04-03T07:38:17;3.13;;;1.60;;
25559;SDS011;13450;49.374;8.584;2023-04-03T07:40:49;4.18;;;1.73;;
25559;SDS011;13450;49.374;8.584;2023-04-03T07:43:18;4.82;;;1.70;;
25559;SDS011;13450;49.374;8.584;2023-04-03T07:45:45;4.25;;;1.38;;
25559;SDS011;13450;49.374;8.584;2023-04-03T07:48:12;3.35;;;1.50;;
25559;SDS011;13450;49.374;8.584;2023-04-03T07:50:39;2.03;;;1.10;;
25559;SDS011;13450;49.374;8.584;2023-04-03T07:55:33;3.72;;;1.30;;
25559;SDS011;13450;49.374;8.584;2023-04-03T07:57:58;2.22;;;1.25;;
25559;SDS011;13450;49.374;8.584;2023-04-03T08:00:24;2.80;;;1.10;;
25559;SDS011;13450;49.374;8.584;2023-04-03T08:02:49;3.95;;;1.52;;
25559;SDS011;13450;49.374;8.584;2023-04-03T08:05:19;4.70;;;1.83;;
25559;SDS011;13450;49.374;8.584;2023-04-03T08:07:45;3.73;;;1.20;;
25559;SDS011;13450;49.374;8.584;2023-04-03T08:10:11;3.22;;;1.30;;
25559;SDS011;13450;49.374;8.584;2023-04-03T08:12:37;2.38;;;1.10;;
25559;SDS011;13450;49.374;8.584;2023-04-03T08:15:02;4.25;;;1.30;;
25559;SDS011;13450;49.374;8.584;2023-04-03T08:17:28;3.08;;;1.23;;
25559;SDS011;13450;49.374;8.584;2023-04-03T08:19:54;3.50;;;1.50;;
25559;SDS011;13450;49.374;8.584;2023-04-03T08:22:19;1.85;;;1.10;;
25559;SDS011;13450;49.374;8.584;2023-04-03T08:24:44;2.65;;;1.02;;
25559;SDS011;13450;49.374;8.584;2023-04-03T08:27:12;3.13;;;1.10;;
25559;SDS011;13450;49.374;8.584;2023-04-03T08:29:37;4.53;;;1.55;;
25559;SDS011;13450;49.374;8.584;2023-04-03T08:32:03;2.55;;;1.10;;
25559;SDS011;13450;49.374;8.584;2023-04-03T08:34:30;2.17;;;0.93;;
25559;SDS011;13450;49.374;8.584;2023-04-03T08:36:59;2.10;;;0.93;;
25559;SDS011;13450;49.374;8.584;2023-04-03T08:39:25;2.25;;;1.05;;
25559;SDS011;13450;49.374;8.584;2023-04-03T08:41:50;1.73;;;1.00;;
25559;SDS011;13450;49.374;8.584;2023-04-03T08:46:52;2.25;;;1.00;;
25559;SDS011;13450;49.374;8.584;2023-04-03T08:49:21;1.83;;;1.10;;
25559;SDS011;13450;49.374;8.584;2023-04-03T08:52:12;3.15;;;1.25;;
25559;SDS011;13450;49.374;8.584;2023-04-03T08:54:46;2.80;;;1.25;;
25559;SDS011;13450;49.374;8.584;2023-04-03T08:57:15;2.28;;;1.00;;
25559;SDS011;13450;49.374;8.584;2023-04-03T08:59:42;2.85;;;0.90;;
25559;SDS011;13450;49.374;8.584;2023-04-03T09:02:16;2.85;;;1.00;;
25559;SDS011;13450;49.374;8.584;2023-04-03T09:05:10;3.53;;;0.80;;
25559;SDS011;13450;49.374;8.584;2023-04-03T09:07:41;1.92;;;0.95;;
25559;SDS011;13450;49.374;8.584;2023-04-03T09:10:23;2.03;;;1.00;;
25559;SDS011;13450;49.374;8.584;2023-04-03T09:15:55;2.22;;;0.80;;
25559;SDS011;13450;49.374;8.584;2023-04-03T09:18:26;2.20;;;0.90;;
25559;SDS011;13450;49.374;8.584;2023-04-03T09:21:39;1.88;;;0.82;;
25559;SDS011;13450;49.374;8.584;2023-04-03T09:23:57;2.45;;;0.95;;
25559;SDS011;13450;49.374;8.584;2023-04-03T09:26:28;3.78;;;1.02;;
25559;SDS011;13450;49.374;8.584;2023-04-03T09:29:08;2.53;;;1.00;;
25559;SDS011;13450;49.374;8.584;2023-04-03T09:31:40;4.75;;;1.25;;
25559;SDS011;13450;49.374;8.584;2023-04-03T09:34:25;3.17;;;1.00;;
25559;SDS011;13450;49.374;8.584;2023-04-03T09:36:57;2.05;;;1.00;;
25559;SDS011;13450;49.374;8.584;2023-04-03T09:39:48;2.25;;;1.00;;
25559;SDS011;13450;49.374;8.584;2023-04-03T09:42:20;2.00;;;1.00;;
25559;SDS011;13450;49.374;8.584;2023-04-03T09:44:56;1.73;;;0.82;;
25559;SDS011;13450;49.374;8.584;2023-04-03T09:47:31;4.10;;;1.60;;
25559;SDS011;13450;49.374;8.584;2023-04-03T09:52:39;3.22;;;0.80;;
25559;SDS011;13450;49.374;8.584;2023-04-03T09:55:16;1.80;;;0.73;;
25559;SDS011;13450;49.374;8.584;2023-04-03T09:57:57;3.15;;;0.90;;
25559;SDS011;13450;49.374;8.584;2023-04-03T10:00:31;2.22;;;0.75;;
25559;SDS011;13450;49.374;8.584;2023-04-03T10:03:02;2.70;;;1.15;;
25559;SDS011;13450;49.374;8.584;2023-04-03T10:05:33;2.15;;;0.85;;
25559;SDS011;13450;49.374;8.584;2023-04-03T10:08:11;2.25;;;0.80;;
25559;SDS011;13450;49.374;8.584;2023-04-03T10:10:46;1.55;;;0.82;;
25559;SDS011;13450;49.374;8.584;2023-04-03T10:13:14;1.10;;;0.65;;
25559;SDS011;13450;49.374;8.584;2023-04-03T10:18:45;2.15;;;0.85;;
25559;SDS011;13450;49.374;8.584;2023-04-03T10:24:21;1.75;;;0.80;;
25559;SDS011;13450;49.374;8.584;2023-04-03T10:40:56;2.22;;;0.70;;
25559;SDS011;13450;49.374;8.584;2023-04-03T10:46:27;4.05;;;1.10;;
25559;SDS011;13450;49.374;8.584;2023-04-03T10:51:35;2.13;;;0.90;;
25559;SDS011;13450;49.374;8.584;2023-04-03T10:54:17;5.55;;;1.10;;
25559;SDS011;13450;49.374;8.584;2023-04-03T10:56:53;2.65;;;0.70;;
25559;SDS011;13450;49.374;8.584;2023-04-03T10:59:32;4.70;;;1.00;;
25559;SDS011;13450;49.374;8.584;2023-04-03T11:02:07;2.30;;;0.90;;
25559;SDS011;13450;49.374;8.584;2023-04-03T11:04:41;1.65;;;0.70;;
25559;SDS011;13450;49.374;8.584;2023-04-03T11:07:15;3.53;;;1.00;;
25559;SDS011;13450;49.374;8.584;2023-04-03T11:09:46;2.63;;;0.82;;
25559;SDS011;13450;49.374;8.584;2023-04-03T11:12:21;2.80;;;0.80;;
25559;SDS011;13450;49.374;8.584;2023-04-03T11:14:51;1.88;;;0.85;;
25559;SDS011;13450;49.374;8.584;2023-04-03T11:17:22;2.40;;;0.80;;
25559;SDS011;13450;49.374;8.584;2023-04-03T11:20:16;4.47;;;1.40;;
25559;SDS011;13450;49.374;8.584;2023-04-03T11:22:47;3.17;;;0.93;;
25559;SDS011;13450;49.374;8.584;2023-04-03T11:25:20;2.28;;;0.80;;
25559;SDS011;13450;49.374;8.584;2023-04-03T11:30:25;2.67;;;0.70;;
25559;SDS011;13450;49.374;8.584;2023-04-03T11:35:26;1.98;;;0.80;;
25559;SDS011;13450;49.374;8.584;2023-04-03T11:37:52;2.70;;;1.25;;
25559;SDS011;13450;49.374;8.584;2023-04-03T11:40:23;1.60;;;0.70;;
25559;SDS011;13450;49.374;8.584;2023-04-03T11:42:52;1.73;;;0.77;;
25559;SDS011;13450;49.374;8.584;2023-04-03T11:47:55;2.58;;;0.77;;
25559;SDS011;13450;49.374;8.584;2023-04-03T12:06:41;2.83;;;0.95;;
25559;SDS011;13450;49.374;8.584;2023-04-03T12:08:46;2.33;;;1.00;;
25559;SDS011;13450;49.374;8.584;2023-04-03T12:11:14;4.53;;;1.00;;
25559;SDS011;13450;49.374;8.584;2023-04-03T12:16:33;2.95;;;1.00;;
25559;SDS011;13450;49.374;8.584;2023-04-03T12:22:11;2.70;;;1.08;;
25559;SDS011;13450;49.374;8.584;2023-04-03T12:24:39;3.10;;;1.10;;
25559;SDS011;13450;49.374;8.584;2023-04-03T12:30:12;2.95;;;1.02;;
25559;SDS011;13450;49.374;8.584;2023-04-03T12:32:58;3.00;;;1.10;;
25559;SDS011;13450;49.374;8.584;2023-04-03T12:38:37;2.08;;;0.90;;
25559;SDS011;13450;49.374;8.584;2023-04-03T12:46:35;3.63;;;1.13;;
25559;SDS011;13450;49.374;8.584;2023-04-03T12:49:18;6.88;;;1.60;;
25559;SDS011;13450;49.374;8.584;2023-04-03T12:51:47;2.38;;;1.02;;
25559;SDS011;13450;49.374;8.584;2023-04-03T12:54:14;2.78;;;1.00;;
25559;SDS011;13450;49.374;8.584;2023-04-03T12:56:43;3.80;;;0.93;;
25559;SDS011;13450;49.374;8.584;2023-04-03T13:01:57;2.35;;;0.88;;
25559;SDS011;13450;49.374;8.584;2023-04-03T13:04:24;2.45;;;1.00;;
25559;SDS011;13450;49.374;8.584;2023-04-03T13:06:52;1.90;;;0.80;;
25559;SDS011;13450;49.374;8.584;2023-04-03T13:09:22;2.92;;;1.08;;
25559;SDS011;13450;49.374;8.584;2023-04-03T13:12:15;3.97;;;1.00;;
25559;SDS011;13450;49.374;8.584;2023-04-03T13:14:39;2.22;;;0.80;;
25559;SDS011;13450;49.374;8.584;2023-04-03T13:17:12;2.38;;;1.00;;
25559;SDS011;13450;49.374;8.584;2023-04-03T13:19:39;2.83;;;0.90;;
25559;SDS011;13450;49.374;8.584;2023-04-03T13:24:58;2.80;;;1.10;;
25559;SDS011;13450;49.374;8.584;2023-04-03T13:27:29;2.75;;;1.08;;
25559;SDS011;13450;49.374;8.584;2023-04-03T13:32:25;2.33;;;1.00;;
25559;SDS011;13450;49.374;8.584;2023-04-03T13:34:53;3.75;;;1.27;;
25559;SDS011;13450;49.374;8.584;2023-04-03T13:37:26;3.88;;;1.02;;
25559;SDS011;13450;49.374;8.584;2023-04-03T13:40:26;2.72;;;1.20;;
25559;SDS011;13450;49.374;8.584;2023-04-03T13:42:44;3.15;;;1.45;;
25559;SDS011;13450;49.374;8.584;2023-04-03T13:47:46;2.78;;;0.98;;
25559;SDS011;13450;49.374;8.584;2023-04-03T13:50:26;3.10;;;1.00;;
25559;SDS011;13450;49.374;8.584;2023-04-03T13:52:54;1.85;;;0.70;;
25559;SDS011;13450;49.374;8.584;2023-04-03T13:55:27;3.47;;;1.10;;
25559;SDS011;13450;49.374;8.584;2023-04-03T13:57:59;3.80;;;1.55;;
25559;SDS011;13450;49.374;8.584;2023-04-03T14:02:59;2.67;;;0.88;;
25559;SDS011;13450;49.374;8.584;2023-04-03T14:05:24;2.95;;;1.00;;
25559;SDS011;13450;49.374;8.584;2023-04-03T14:07:52;2.58;;;0.90;;
25559;SDS011;13450;49.374;8.584;2023-04-03T14:10:19;2.60;;;0.90;;
25559;SDS011;13450;49.374;8.584;2023-04-03T14:12:45;2.83;;;0.98;;
25559;SDS011;13450;49.374;8.584;2023-04-03T14:15:15;3.55;;;1.05;;
25559;SDS011;13450;49.374;8.584;2023-04-03T14:17:41;5.43;;;2.03;;
25559;SDS011;13450;49.374;8.584;2023-04-03T14:20:10;4.15;;;1.80;;
25559;SDS011;13450;49.374;8.584;2023-04-03T14:22:40;4.03;;;1.63;;
25559;SDS011;13450;49.374;8.584;2023-04-03T14:25:05;6.40;;;2.80;;
25559;SDS011;13450;49.374;8.584;2023-04-03T14:27:36;3.53;;;1.30;;
25559;SDS011;13450;49.374;8.584;2023-04-03T14:30:18;1.63;;;0.80;;
25559;SDS011;13450;49.374;8.584;2023-04-03T14:32:44;3.08;;;1.60;;
25559;SDS011;13450;49.374;8.584;2023-04-03T14:35:11;3.80;;;2.05;;
25559;SDS011;13450;49.374;8.584;2023-04-03T14:37:37;2.03;;;0.98;;
25559;SDS011;13450;49.374;8.584;2023-04-03T14:40:03;2.47;;;0.90;;
25559;SDS011;13450;49.374;8.584;2023-04-03T14:42:31;4.40;;;1.70;;
25559;SDS011;13450;49.374;8.584;2023-04-03T14:44:58;6.57;;;2.80;;
25559;SDS011;13450;49.374;8.584;2023-04-03T14:47:26;4.50;;;1.38;;
25559;SDS011;13450;49.374;8.584;2023-04-03T14:49:54;7.20;;;3.67;;
25559;SDS011;13450;49.374;8.584;2023-04-03T14:52:20;4.15;;;2.42;;
25559;SDS011;13450;49.374;8.584;2023-04-03T14:54:48;3.97;;;1.10;;
25559;SDS011;13450;49.374;8.584;2023-04-03T14:57:15;2.63;;;1.00;;
25559;SDS011;13450;49.374;8.584;2023-04-03T14:59:42;4.97;;;1.42;;
25559;SDS011;13450;49.374;8.584;2023-04-03T15:02:23;3.05;;;1.10;;
25559;SDS011;13450;49.374;8.584;2023-04-03T15:04:56;2.72;;;1.20;;
25559;SDS011;13450;49.374;8.584;2023-04-03T15:07:26;2.47;;;1.10;;
25559;SDS011;13450;49.374;8.584;2023-04-03T15:09:54;4.30;;;1.00;;
25559;SDS011;13450;49.374;8.584;2023-04-03T15:12:21;4.85;;;0.95;;
25559;SDS011;13450;49.374;8.584;2023-04-03T15:14:47;2.25;;;1.02;;
25559;SDS011;13450;49.374;8.584;2023-04-03T15:17:16;2.00;;;0.90;;
25559;SDS011;13450;49.374;8.584;2023-04-03T15:19:44;1.77;;;0.85;;
25559;SDS011;13450;49.374;8.584;2023-04-03T15:22:17;2.60;;;0.98;;
25559;SDS011;13450;49.374;8.584;2023-04-03T15:24:43;2.30;;;0.90;;
25559;SDS011;13450;49.374;8.584;2023-04-03T15:27:12;2.50;;;0.93;;
25559;SDS011;13450;49.374;8.584;2023-04-03T15:29:38;2.33;;;1.05;;
25559;SDS011;13450;49.374;8.584;2023-04-03T15:32:05;2.67;;;0.98;;
25559;SDS011;13450;49.374;8.584;2023-04-03T15:34:30;1.63;;;0.88;;
25559;SDS011;13450;49.374;8.584;2023-04-03T15:36:56;2.53;;;0.80;;
25559;SDS011;13450;49.374;8.584;2023-04-03T15:39:24;2.45;;;1.15;;
25559;SDS011;13450;49.374;8.584;2023-04-03T15:41:51;2.75;;;1.00;;
25559;SDS011;13450;49.374;8.584;2023-04-03T15:44:17;3.72;;;1.10;;
25559;SDS011;13450;49.374;8.584;2023-04-03T15:46:43;2.33;;;1.00;;
25559;SDS011;13450;49.374;8.584;2023-04-03T15:49:10;2.33;;;1.05;;
25559;SDS011;13450;49.374;8.584;2023-04-03T15:51:36;3.83;;;1.08;;
25559;SDS011;13450;49.374;8.584;2023-04-03T15:54:02;1.55;;;0.77;;
25559;SDS011;13450;49.374;8.584;2023-04-03T15:56:27;3.55;;;1.02;;
25559;SDS011;13450;49.374;8.584;2023-04-03T15:58:52;2.40;;;1.10;;
25559;SDS011;13450;49.374;8.584;2023-04-03T16:01:18;2.35;;;0.90;;
25559;SDS011;13450;49.374;8.584;2023-04-03T16:03:43;3.47;;;1.20;;
25559;SDS011;13450;49.374;8.584;2023-04-03T16:06:14;4.68;;;1.10;;
25559;SDS011;13450;49.374;8.584;2023-04-03T16:08:41;2.30;;;0.70;;
25559;SDS011;13450;49.374;8.584;2023-04-03T16:11:07;1.88;;;0.80;;
25559;SDS011;13450;49.374;8.584;2023-04-03T16:13:33;2.15;;;1.10;;
25559;SDS011;13450;49.374;8.584;2023-04-03T16:15:59;2.55;;;0.93;;
25559;SDS011;13450;49.374;8.584;2023-04-03T16:18:26;2.75;;;1.00;;
25559;SDS011;13450;49.374;8.584;2023-04-03T16:20:55;2.42;;;0.80;;
25559;SDS011;13450;49.374;8.584;2023-04-03T16:23:20;2.85;;;0.90;;
25559;SDS011;13450;49.374;8.584;2023-04-03T16:25:46;2.58;;;1.20;;
25559;SDS011;13450;49.374;8.584;2023-04-03T16:28:12;1.73;;;0.80;;
25559;SDS011;13450;49.374;8.584;2023-04-03T16:30:42;4.13;;;1.23;;
25559;SDS011;13450;49.374;8.584;2023-04-03T16:33:09;2.45;;;0.90;;
25559;SDS011;13450;49.374;8.584;2023-04-03T16:35:36;2.22;;;0.80;;
25559;SDS011;13450;49.374;8.584;2023-04-03T16:38:01;3.60;;;0.90;;
25559;SDS011;13450;49.374;8.584;2023-04-03T16:40:27;2.22;;;0.80;;
25559;SDS011;13450;49.374;8.584;2023-04-03T16:42:52;1.55;;;0.75;;
25559;SDS011;13450;49.374;8.584;2023-04-03T16:45:18;3.58;;;0.90;;
25559;SDS011;13450;49.374;8.584;2023-04-03T16:47:43;2.92;;;0.70;;
25559;SDS011;13450;49.374;8.584;2023-04-03T16:50:08;2.05;;;0.90;;
25559;SDS011;13450;49.374;8.584;2023-04-03T16:52:34;3.03;;;1.00;;
25559;SDS011;13450;49.374;8.584;2023-04-03T16:55:00;1.90;;;0.82;;
25559;SDS011;13450;49.374;8.584;2023-04-03T16:57:25;2.92;;;1.00;;
25559;SDS011;13450;49.374;8.584;2023-04-03T16:59:51;2.85;;;0.90;;
25559;SDS011;13450;49.374;8.584;2023-04-03T17:02:20;3.27;;;0.90;;
25559;SDS011;13450;49.374;8.584;2023-04-03T17:04:54;2.38;;;0.98;;
25559;SDS011;13450;49.374;8.584;2023-04-03T17:07:22;2.03;;;0.90;;
25559;SDS011;13450;49.374;8.584;2023-04-03T17:09:52;3.40;;;0.90;;